Time;durP1;ratioP1;P1;durP2;ratioP2;P2;SDS_P1;SDS_P2;PMS_P1;PMS_P2;Temp;Humidity;BMP_temperature;BMP_pressure;BME280_temperature;BME280_humidity;BME280_pressure;Samples;Min_cycle;Max_cycle;Signal;HPM_P1;HPM_P2
2022/09/25 00:00:46;;;;;;;26.90;17.23;;;12.40;99.90;;;;;;5066236;28;20044;-44
2022/09/25 00:03:13;;;;;;;24.70;17.05;;;12.50;99.90;;;;;;5058437;28;20025;-48
2022/09/25 00:05:40;;;;;;;25.60;16.27;;;12.50;99.90;;;;;;5058279;28;20395;-44
2022/09/25 00:08:07;;;;;;;23.40;14.90;;;12.40;99.90;;;;;;5041697;28;20079;-44
2022/09/25 00:10:33;;;;;;;24.75;16.10;;;12.40;99.90;;;;;;5063600;28;20057;-44
2022/09/25 00:12:59;;;;;;;24.35;16.02;;;12.40;99.90;;;;;;5059829;28;20064;-44
2022/09/25 00:15:51;;;;;;;22.73;14.25;;;12.40;99.90;;;;;;5047661;28;20487;-44
2022/09/25 00:19:48;;;;;;;27.85;15.40;;;12.40;99.90;;;;;;5054761;28;20029;-45
2022/09/25 00:21:03;;;;;;;29.50;16.60;;;12.40;99.90;;;;;;5060566;28;20041;-44
2022/09/25 00:23:29;;;;;;;28.58;17.20;;;12.40;99.90;;;;;;5062058;28;20036;-46
2022/09/25 00:25:55;;;;;;;30.80;18.95;;;12.40;99.90;;;;;;5061046;28;20028;-44
2022/09/25 00:28:20;;;;;;;30.20;17.42;;;12.40;99.90;;;;;;5062032;28;20067;-44
2022/09/25 00:30:46;;;;;;;29.77;16.70;;;12.40;99.90;;;;;;5043913;28;20239;-44
2022/09/25 00:33:11;;;;;;;28.23;16.80;;;12.40;99.90;;;;;;5062056;28;20021;-44
2022/09/25 00:35:37;;;;;;;31.63;20.10;;;12.40;99.90;;;;;;5061929;28;20040;-45
2022/09/25 00:38:02;;;;;;;28.63;18.88;;;12.40;99.90;;;;;;5058922;28;20017;-44
2022/09/25 00:40:28;;;;;;;28.92;18.98;;;12.40;99.90;;;;;;5056383;28;20024;-44
2022/09/25 00:42:53;;;;;;;30.42;19.48;;;12.40;99.90;;;;;;5058570;28;20020;-44
2022/09/25 00:45:21;;;;;;;30.75;19.35;;;12.40;99.90;;;;;;5061816;28;20020;-46
2022/09/25 00:47:51;;;;;;;28.08;17.90;;;12.40;99.90;;;;;;5061725;28;20032;-47
2022/09/25 00:50:37;;;;;;;32.95;20.83;;;12.30;99.90;;;;;;5040372;28;20162;-44
2022/09/25 00:53:24;;;;;;;;;;;12.30;99.90;;;;;;5066318;28;20082;-44
2022/09/25 00:55:50;;;;;;;27.13;16.80;;;12.30;99.90;;;;;;5058133;28;19950;-44
2022/09/25 00:58:20;;;;;;;28.90;17.67;;;12.30;99.90;;;;;;5060610;28;20448;-45
2022/09/25 01:00:46;;;;;;;27.95;17.00;;;12.30;99.90;;;;;;5058143;28;20402;-45
2022/09/25 01:03:12;;;;;;;30.30;18.10;;;12.30;99.90;;;;;;5058282;28;20036;-46
2022/09/25 01:05:42;;;;;;;31.70;17.52;;;12.30;99.90;;;;;;5062081;28;20327;-44
2022/09/25 01:08:12;;;;;;;34.97;20.40;;;12.30;99.90;;;;;;5060177;28;20083;-44
2022/09/25 01:10:38;;;;;;;41.08;23.15;;;12.30;99.90;;;;;;5060592;28;20517;-47
2022/09/25 01:13:05;;;;;;;35.33;19.98;;;12.30;99.90;;;;;;5059651;28;20479;-46
2022/09/25 01:15:54;;;;;;;37.72;21.80;;;12.30;99.90;;;;;;5043801;28;20062;-48
2022/09/25 01:18:50;;;;;;;32.38;19.75;;;12.30;99.90;;;;;;5032115;28;20016;-44
2022/09/25 01:21:36;;;;;;;41.13;21.92;;;12.30;99.90;;;;;;5074841;22;20071;-57
2022/09/25 01:24:30;;;;;;;30.65;19.48;;;12.30;99.90;;;;;;5059811;28;20035;-51
2022/09/25 01:27:16;;;;;;;37.35;21.58;;;12.30;99.90;;;;;;5056785;28;20021;-51
2022/09/25 01:29:51;;;;;;;36.88;21.30;;;12.30;99.90;;;;;;5060222;28;20067;-51
2022/09/25 01:32:37;;;;;;;38.92;22.40;;;12.30;99.90;;;;;;5045800;28;20536;-52
2022/09/25 01:35:08;;;;;;;42.58;22.48;;;12.30;99.90;;;;;;5060407;28;20021;-56
2022/09/25 01:37:43;;;;;;;53.35;24.25;;;12.30;99.90;;;;;;5043684;28;20020;-53
2022/09/25 01:40:15;;;;;;;42.67;22.83;;;12.20;99.90;;;;;;5061293;28;20024;-55
2022/09/25 01:42:59;;;;;;;33.63;20.98;;;12.20;99.90;;;;;;5061307;28;20054;-55
2022/09/25 01:45:35;;;;;;;43.10;22.40;;;12.20;99.90;;;;;;5054557;28;20540;-55
2022/09/25 01:48:04;;;;;;;28.95;18.58;;;12.20;99.90;;;;;;5059742;28;20522;-51
2022/09/25 01:50:43;;;;;;;36.40;19.17;;;12.20;99.90;;;;;;5057822;28;20033;-51
2022/09/25 01:53:14;;;;;;;29.42;18.77;;;12.20;99.90;;;;;;5063303;28;20025;-51
2022/09/25 01:55:45;;;;;;;32.00;20.48;;;12.30;99.90;;;;;;5053234;28;20049;-51
2022/09/25 01:58:18;;;;;;;28.45;19.15;;;12.20;99.90;;;;;;5064712;28;20095;-52
2022/09/25 02:00:53;;;;;;;29.35;18.25;;;12.20;99.90;;;;;;5058326;28;20021;-53
2022/09/25 02:03:43;;;;;;;31.67;19.37;;;12.20;99.90;;;;;;5050623;28;20024;-54
2022/09/25 02:06:15;;;;;;;29.60;18.55;;;12.30;99.90;;;;;;5059900;28;20629;-52
2022/09/25 02:08:46;;;;;;;29.60;19.23;;;12.20;99.90;;;;;;5060067;28;20100;-51
2022/09/25 02:11:13;;;;;;;26.45;17.25;;;12.20;99.90;;;;;;5060489;28;20490;-54
2022/09/25 02:14:04;;;;;;;26.08;17.98;;;12.20;99.90;;;;;;5061030;28;20059;-53
2022/09/25 02:16:42;;;;;;;30.67;17.77;;;12.20;99.90;;;;;;5053561;28;20384;-51
2022/09/25 02:22:21;;;;;;;28.95;15.68;;;12.20;99.90;;;;;;5060036;28;20513;-53
2022/09/25 02:25:29;;;;;;;22.52;16.08;;;12.20;99.90;;;;;;5054018;28;20025;-51
2022/09/25 02:27:55;;;;;;;25.95;16.10;;;12.20;99.90;;;;;;4957200;28;20055;-52
2022/09/25 02:30:20;;;;;;;25.92;16.05;;;12.10;99.90;;;;;;4970351;28;20061;-52
2022/09/25 02:32:46;;;;;;;25.33;16.45;;;12.10;99.90;;;;;;5015390;28;20037;-51
2022/09/25 02:35:11;;;;;;;29.73;14.27;;;12.10;99.90;;;;;;5064529;28;20449;-52
2022/09/25 02:37:37;;;;;;;24.25;16.00;;;12.10;99.90;;;;;;5064666;28;20098;-51
2022/09/25 02:40:04;;;;;;;24.98;15.75;;;12.10;99.90;;;;;;5063168;28;20036;-55
2022/09/25 02:42:48;;;;;;;32.95;19.92;;;12.10;99.90;;;;;;5066212;28;20107;-51
2022/09/25 02:45:32;;;;;;;28.98;18.73;;;12.10;99.90;;;;;;5064519;28;20039;-51
2022/09/25 02:48:03;;;;;;;24.75;16.73;;;12.10;99.90;;;;;;5063137;28;20031;-52
2022/09/25 02:50:37;;;;;;;35.95;21.50;;;12.10;99.90;;;;;;5061250;28;20028;-56
2022/09/25 02:53:20;;;;;;;27.60;18.60;;;12.10;99.90;;;;;;5066901;28;20432;-51
2022/09/25 02:56:03;;;;;;;25.50;17.50;;;12.10;99.90;;;;;;5057387;28;20029;-51
2022/09/25 02:58:40;;;;;;;28.20;20.02;;;12.10;99.90;;;;;;5056249;28;20386;-51
2022/09/25 03:01:09;;;;;;;35.35;21.75;;;12.10;99.90;;;;;;5063205;28;20111;-51
2022/09/25 03:03:37;;;;;;;25.90;19.38;;;12.10;99.90;;;;;;5065150;28;20061;-52
2022/09/25 03:06:04;;;;;;;32.13;19.80;;;12.10;99.90;;;;;;5062665;28;20452;-51
2022/09/25 03:08:40;;;;;;;27.90;18.30;;;12.10;99.90;;;;;;5046453;28;20020;-56
2022/09/25 03:11:18;;;;;;;27.42;19.17;;;12.10;99.90;;;;;;5061573;28;20052;-55
2022/09/25 03:13:45;;;;;;;28.30;19.50;;;12.10;99.90;;;;;;5063428;28;20078;-52
2022/09/25 03:16:29;;;;;;;31.42;20.55;;;12.10;99.90;;;;;;5063831;28;20012;-51
2022/09/25 03:18:54;;;;;;;25.17;17.13;;;12.10;99.90;;;;;;5063117;28;20021;-51
2022/09/25 03:21:20;;;;;;;25.40;17.95;;;12.10;99.90;;;;;;5063345;28;20032;-54
2022/09/25 03:23:45;;;;;;;26.73;17.63;;;12.10;99.90;;;;;;5063847;28;20103;-52
2022/09/25 03:26:12;;;;;;;28.92;19.67;;;12.10;99.90;;;;;;5061337;28;20610;-51
2022/09/25 03:28:37;;;;;;;30.00;19.75;;;12.10;99.90;;;;;;5064050;28;20024;-51
2022/09/25 03:31:05;;;;;;;34.80;21.67;;;12.20;99.90;;;;;;5043851;28;20555;-51
2022/09/25 03:33:37;;;;;;;30.15;21.17;;;12.10;99.90;;;;;;5063563;28;20051;-51
2022/09/25 03:36:04;;;;;;;31.83;20.88;;;12.10;99.90;;;;;;5062895;28;20301;-52
2022/09/25 03:38:30;;;;;;;28.17;19.45;;;12.10;99.90;;;;;;5063480;28;20052;-51
2022/09/25 03:40:56;;;;;;;26.65;19.73;;;12.10;99.90;;;;;;5061001;28;20091;-53
2022/09/25 03:43:21;;;;;;;34.33;22.35;;;12.10;99.90;;;;;;5061766;28;20031;-52
2022/09/25 03:45:47;;;;;;;34.83;21.83;;;12.10;99.90;;;;;;5063462;28;20160;-52
2022/09/25 03:48:12;;;;;;;29.42;20.65;;;12.20;99.90;;;;;;5059474;28;20442;-52
2022/09/25 03:50:38;;;;;;;32.47;21.95;;;12.10;99.90;;;;;;5059785;28;20055;-53
2022/09/25 03:53:04;;;;;;;29.95;20.55;;;12.10;99.90;;;;;;5065371;28;20396;-51
2022/09/25 03:55:29;;;;;;;31.55;21.15;;;12.10;99.90;;;;;;5059526;28;20111;-52
2022/09/25 03:57:55;;;;;;;27.63;19.25;;;12.10;99.90;;;;;;5066298;28;20036;-53
2022/09/25 04:00:22;;;;;;;30.90;20.33;;;12.10;99.90;;;;;;5059510;28;20025;-51
2022/09/25 04:02:49;;;;;;;30.50;20.50;;;12.10;99.90;;;;;;5066785;28;20070;-51
2022/09/25 04:05:15;;;;;;;24.70;18.63;;;12.10;99.90;;;;;;5054708;28;20055;-51
2022/09/25 04:07:41;;;;;;;30.38;19.92;;;12.20;99.90;;;;;;5033630;28;20024;-52
2022/09/25 04:10:07;;;;;;;25.67;17.60;;;12.20;99.90;;;;;;5047264;28;20489;-51
2022/09/25 04:12:32;;;;;;;24.83;18.02;;;12.20;99.90;;;;;;5058847;28;20036;-51
2022/09/25 04:14:58;;;;;;;28.90;18.77;;;12.20;99.90;;;;;;5048104;28;20021;-51
2022/09/25 04:17:23;;;;;;;23.27;16.95;;;12.10;99.90;;;;;;5052852;28;20503;-54
2022/09/25 04:19:49;;;;;;;24.85;17.25;;;12.20;99.90;;;;;;5066422;28;20143;-54
2022/09/25 04:22:14;;;;;;;30.45;20.30;;;12.10;99.90;;;;;;5058888;28;20085;-52
2022/09/25 04:24:49;;;;;;;26.33;18.83;;;12.20;99.90;;;;;;5059089;28;20025;-52
2022/09/25 04:27:21;;;;;;;32.53;19.35;;;12.10;99.90;;;;;;5053271;28;20475;-51
2022/09/25 04:29:47;;;;;;;28.90;20.63;;;12.10;99.90;;;;;;5059032;28;20037;-51
2022/09/25 04:34:58;;;;;;;30.10;19.10;;;12.10;99.90;;;;;;5058350;28;20048;-54
2022/09/25 04:37:25;;;;;;;30.45;22.13;;;12.10;99.90;;;;;;5065290;28;20479;-52
2022/09/25 04:39:54;;;;;;;25.35;18.27;;;12.10;99.90;;;;;;5058732;28;20025;-53
2022/09/25 04:42:23;;;;;;;27.80;18.73;;;12.10;99.90;;;;;;5062442;28;20019;-52
2022/09/25 04:44:53;;;;;;;23.83;17.13;;;12.10;99.90;;;;;;5060118;28;20021;-56
2022/09/25 04:47:21;;;;;;;25.48;19.10;;;12.10;99.90;;;;;;5062157;28;20491;-51
2022/09/25 04:49:47;;;;;;;28.83;19.55;;;12.10;99.90;;;;;;5061938;28;20545;-53
2022/09/25 04:52:14;;;;;;;27.92;20.60;;;12.10;99.90;;;;;;5059148;28;20104;-54
2022/09/25 04:54:40;;;;;;;30.92;20.10;;;12.10;99.90;;;;;;5062472;28;20077;-52
2022/09/25 04:57:05;;;;;;;28.45;21.15;;;12.10;99.90;;;;;;5060514;28;20016;-51
2022/09/25 04:59:31;;;;;;;26.83;19.63;;;12.10;99.90;;;;;;5062284;28;20028;-53
2022/09/25 05:01:57;;;;;;;28.23;19.70;;;12.10;99.90;;;;;;5061043;28;20359;-52
2022/09/25 05:04:22;;;;;;;24.10;18.33;;;12.10;99.90;;;;;;5062110;28;20458;-52
2022/09/25 05:06:48;;;;;;;30.17;20.35;;;12.10;99.90;;;;;;5061698;28;20115;-53
2022/09/25 05:09:13;;;;;;;33.95;23.10;;;12.10;99.90;;;;;;5059367;28;20561;-53
2022/09/25 05:11:39;;;;;;;30.83;22.55;;;12.10;99.90;;;;;;5061616;28;20043;-51
2022/09/25 05:14:04;;;;;;;31.98;21.85;;;12.10;99.90;;;;;;5057018;28;20071;-51
2022/09/25 05:16:30;;;;;;;33.08;22.10;;;12.10;99.90;;;;;;5062046;28;20437;-51
2022/09/25 05:18:56;;;;;;;27.55;18.50;;;12.10;99.90;;;;;;5063460;28;20029;-53
2022/09/25 05:21:21;;;;;;;30.10;21.85;;;12.10;99.90;;;;;;5043055;28;20032;-57
2022/09/25 05:23:47;;;;;;;36.55;23.38;;;12.10;99.90;;;;;;5061806;28;20029;-51
2022/09/25 05:26:13;;;;;;;33.78;23.35;;;12.10;99.90;;;;;;5061452;28;20509;-51
2022/09/25 05:28:38;;;;;;;30.83;20.70;;;12.10;99.90;;;;;;5061753;28;20052;-52
2022/09/25 05:31:05;;;;;;;32.85;19.98;;;12.00;99.90;;;;;;5059370;28;20410;-54
2022/09/25 05:33:31;;;;;;;23.77;18.05;;;12.10;99.90;;;;;;5061980;28;20024;-52
2022/09/25 05:36:06;;;;;;;28.85;19.73;;;12.10;99.90;;;;;;5060522;28;20024;-52
2022/09/25 05:38:33;;;;;;;33.53;21.88;;;12.10;99.90;;;;;;5057221;28;20126;-52
2022/09/25 05:41:03;;;;;;;33.15;20.65;;;12.10;99.90;;;;;;5060077;28;20028;-55
2022/09/25 05:43:30;;;;;;;29.75;20.85;;;12.10;99.90;;;;;;5062896;28;20324;-52
2022/09/25 05:45:57;;;;;;;32.38;20.50;;;12.10;99.90;;;;;;5060478;28;20372;-52
2022/09/25 05:48:22;;;;;;;34.00;20.92;;;12.10;99.90;;;;;;5057772;28;20013;-53
2022/09/25 05:50:57;;;;;;;35.38;21.67;;;12.10;99.90;;;;;;5058048;28;20032;-53
2022/09/25 05:53:24;;;;;;;32.60;23.27;;;12.10;99.90;;;;;;5053311;28;20387;-52
2022/09/25 05:56:07;;;;;;;29.65;20.60;;;12.10;99.90;;;;;;5058296;28;20053;-53
2022/09/25 05:58:34;;;;;;;30.80;19.88;;;12.10;99.90;;;;;;5062403;28;20044;-54
2022/09/25 06:01:02;;;;;;;32.83;20.70;;;12.10;99.90;;;;;;5041396;28;20021;-54
2022/09/25 06:03:28;;;;;;;30.52;18.65;;;12.10;99.90;;;;;;5063366;28;20023;-53
2022/09/25 06:05:55;;;;;;;32.85;20.67;;;12.10;99.90;;;;;;5062317;28;20024;-53
2022/09/25 06:08:21;;;;;;;24.67;17.38;;;12.10;99.90;;;;;;5065599;28;20429;-53
2022/09/25 06:10:53;;;;;;;26.88;18.65;;;12.10;99.90;;;;;;5063151;28;20033;-53
2022/09/25 06:13:19;;;;;;;24.52;17.42;;;12.10;99.90;;;;;;5050925;28;20020;-57
2022/09/25 06:15:45;;;;;;;23.50;15.88;;;12.10;99.90;;;;;;5063858;28;20469;-55
2022/09/25 06:18:10;;;;;;;23.98;18.13;;;12.10;99.90;;;;;;5064787;28;20046;-53
2022/09/25 06:20:36;;;;;;;24.05;17.73;;;12.10;99.90;;;;;;5065714;28;20041;-54
2022/09/25 06:23:02;;;;;;;21.67;16.35;;;12.10;99.90;;;;;;5062935;28;20487;-53
2022/09/25 06:25:31;;;;;;;21.23;15.73;;;12.10;99.90;;;;;;5065156;28;20062;-56
2022/09/25 06:27:59;;;;;;;18.83;14.88;;;12.10;99.90;;;;;;5062868;28;20017;-57
2022/09/25 06:30:29;;;;;;;17.33;13.52;;;12.20;99.90;;;;;;5064936;28;20059;-54
2022/09/25 06:32:57;;;;;;;19.08;15.10;;;12.20;99.90;;;;;;5063200;28;20024;-53
2022/09/25 06:35:22;;;;;;;14.50;12.10;;;12.20;99.90;;;;;;5064961;28;20452;-55
2022/09/25 06:37:48;;;;;;;18.40;13.45;;;12.20;99.90;;;;;;5064150;28;20021;-56
2022/09/25 06:40:14;;;;;;;15.90;11.45;;;12.20;99.90;;;;;;5046818;28;20217;-54
2022/09/25 06:42:39;;;;;;;14.73;11.48;;;12.20;99.90;;;;;;5063301;28;20028;-53
2022/09/25 06:45:05;;;;;;;13.07;10.48;;;12.20;99.90;;;;;;5063781;28;20074;-55
2022/09/25 06:47:31;;;;;;;12.25;9.85;;;12.20;99.90;;;;;;5064545;28;20100;-55
2022/09/25 06:49:56;;;;;;;12.80;10.30;;;12.20;99.90;;;;;;5063463;28;20024;-57
2022/09/25 06:52:22;;;;;;;12.20;9.63;;;12.20;99.90;;;;;;5062890;28;20046;-53
2022/09/25 06:54:47;;;;;;;11.68;9.10;;;12.20;99.90;;;;;;5064659;28;20115;-54
2022/09/25 06:57:13;;;;;;;11.82;9.10;;;12.20;99.90;;;;;;5062729;28;20043;-54
2022/09/25 06:59:39;;;;;;;10.55;7.68;;;12.10;99.90;;;;;;5064266;28;20020;-53
2022/09/25 07:04:50;;;;;;;9.50;7.10;;;12.10;99.90;;;;;;5064320;28;20031;-55
2022/09/25 07:07:19;;;;;;;10.90;7.75;;;12.20;99.90;;;;;;5057711;28;20457;-53
2022/09/25 07:09:47;;;;;;;10.50;7.82;;;12.20;99.90;;;;;;5065708;28;20052;-53
2022/09/25 07:12:17;;;;;;;11.70;9.02;;;12.20;99.90;;;;;;5060270;28;20033;-53
2022/09/25 07:14:45;;;;;;;10.77;8.45;;;12.20;99.90;;;;;;5066477;28;20017;-53
2022/09/25 07:17:11;;;;;;;9.57;6.85;;;12.20;99.90;;;;;;5060513;28;20009;-55
2022/09/25 07:19:37;;;;;;;9.55;7.50;;;12.20;99.90;;;;;;5066072;28;20032;-58
2022/09/25 07:22:03;;;;;;;11.52;6.60;;;12.20;99.90;;;;;;5081454;22;20048;-52
2022/09/25 07:24:30;;;;;;;8.35;6.32;;;12.20;99.90;;;;;;5059291;28;20403;-55
2022/09/25 07:26:55;;;;;;;7.65;6.35;;;12.20;99.90;;;;;;5047598;28;20479;-58
2022/09/25 07:29:21;;;;;;;9.43;7.90;;;12.20;99.90;;;;;;5059327;28;20075;-55
2022/09/25 07:31:46;;;;;;;12.40;9.07;;;12.20;99.90;;;;;;5065755;28;20082;-53
2022/09/25 07:34:12;;;;;;;10.48;9.05;;;12.10;99.90;;;;;;5059732;28;20025;-55
2022/09/25 07:36:39;;;;;;;14.32;9.95;;;12.10;99.90;;;;;;5031172;28;20024;-57
2022/09/25 07:39:05;;;;;;;13.88;11.40;;;12.10;99.90;;;;;;5060476;28;20386;-54
2022/09/25 07:41:31;;;;;;;12.70;10.60;;;12.10;99.90;;;;;;5041059;28;20017;-51
2022/09/25 07:43:58;;;;;;;16.23;11.60;;;12.10;99.90;;;;;;5047291;28;20056;-56
2022/09/25 07:46:27;;;;;;;17.52;13.07;;;12.10;99.90;;;;;;5059505;28;20025;-56
2022/09/25 07:48:53;;;;;;;18.42;12.05;;;12.10;99.90;;;;;;5057541;28;20025;-53
2022/09/25 07:51:22;;;;;;;16.77;12.15;;;12.20;99.90;;;;;;5062943;28;20012;-52
2022/09/25 07:53:48;;;;;;;15.10;12.27;;;12.20;99.90;;;;;;5042656;28;20094;-52
2022/09/25 07:56:13;;;;;;;14.77;12.13;;;12.10;99.90;;;;;;5062725;28;20526;-56
2022/09/25 07:58:39;;;;;;;17.08;12.90;;;12.10;99.90;;;;;;5044342;28;20495;-57
2022/09/25 08:01:08;;;;;;;18.85;13.05;;;12.20;99.90;;;;;;5061693;28;20021;-59
2022/09/25 08:03:34;;;;;;;17.48;13.30;;;12.20;99.90;;;;;;5047570;28;20063;-54
2022/09/25 08:06:04;;;;;;;17.90;13.07;;;12.20;99.90;;;;;;5042783;28;20101;-56
2022/09/25 08:08:31;;;;;;;18.65;13.82;;;12.20;99.90;;;;;;5062719;28;20036;-52
2022/09/25 08:11:10;;;;;;;18.48;12.95;;;12.20;99.90;;;;;;5062223;28;20067;-56
2022/09/25 08:13:38;;;;;;;16.17;12.82;;;12.20;99.90;;;;;;5062485;28;20032;-55
2022/09/25 08:16:06;;;;;;;17.17;12.32;;;12.20;99.90;;;;;;5042777;28;20032;-57
2022/09/25 08:18:31;;;;;;;18.45;12.93;;;12.30;99.90;;;;;;5063002;28;20020;-56
2022/09/25 08:21:04;;;;;;;15.63;12.27;;;12.30;99.90;;;;;;5060755;28;20045;-57
2022/09/25 08:23:30;;;;;;;19.20;13.32;;;12.30;99.90;;;;;;5039819;28;20393;-56
2022/09/25 08:25:56;;;;;;;18.23;12.68;;;12.30;99.90;;;;;;5061044;28;20115;-57
2022/09/25 08:28:22;;;;;;;16.35;13.02;;;12.30;99.90;;;;;;5063196;28;20442;-57
2022/09/25 08:30:48;;;;;;;15.48;11.98;;;12.40;99.90;;;;;;5062422;28;20036;-57
2022/09/25 08:33:14;;;;;;;16.15;12.00;;;12.40;99.90;;;;;;5040154;28;20108;-55
2022/09/25 08:35:40;;;;;;;14.48;11.75;;;12.40;99.90;;;;;;5063733;28;20387;-55
2022/09/25 08:38:06;;;;;;;14.23;11.43;;;12.40;99.90;;;;;;5059536;28;20047;-53
2022/09/25 08:40:33;;;;;;;14.77;11.15;;;12.40;99.90;;;;;;5063619;28;20395;-57
2022/09/25 08:42:59;;;;;;;14.50;10.88;;;12.40;99.90;;;;;;5060132;28;20020;-56
2022/09/25 08:49:00;;;;;;;16.38;11.90;;;12.40;99.90;;;;;;5055254;28;20044;-58
2022/09/25 08:51:35;;;;;;;18.60;12.07;;;12.40;99.90;;;;;;5030504;28;20135;-53
2022/09/25 08:54:03;;;;;;;15.50;12.35;;;12.40;99.90;;;;;;5058457;28;20568;-56
2022/09/25 08:56:31;;;;;;;14.50;9.95;;;12.40;99.90;;;;;;5043754;28;20494;-54
2022/09/25 08:59:22;;;;;;;13.63;9.50;;;12.40;99.90;;;;;;5059907;28;20029;-56
2022/09/25 09:01:57;;;;;;;14.05;9.18;;;12.40;99.90;;;;;;5060633;28;20028;-53
2022/09/25 09:04:33;;;;;;;10.93;8.27;;;12.40;99.90;;;;;;5035087;28;20020;-52
2022/09/25 09:07:07;;;;;;;10.43;8.32;;;12.40;99.90;;;;;;5041227;28;20032;-54
2022/09/25 09:09:44;;;;;;;12.20;8.85;;;12.40;99.90;;;;;;5062233;28;20055;-57
2022/09/25 09:12:15;;;;;;;12.02;9.65;;;12.40;99.90;;;;;;5057861;28;20379;-52
2022/09/25 09:14:51;;;;;;;9.55;8.07;;;12.40;99.90;;;;;;5063713;28;20016;-54
2022/09/25 09:17:24;;;;;;;10.32;8.27;;;12.40;99.90;;;;;;5054104;28;20036;-56
2022/09/25 09:19:54;;;;;;;11.75;9.40;;;12.40;99.90;;;;;;5065543;28;20103;-52
2022/09/25 09:22:29;;;;;;;11.55;9.48;;;12.40;99.90;;;;;;5057294;28;20078;-53
2022/09/25 09:25:04;;;;;;;9.10;8.15;;;12.40;99.90;;;;;;5058927;28;20041;-54
2022/09/25 09:27:51;;;;;;;8.60;6.70;;;12.40;99.90;;;;;;5061479;28;20394;-53
2022/09/25 09:30:23;;;;;;;9.60;8.60;;;12.40;99.90;;;;;;5046647;28;20025;-53
2022/09/25 09:33:19;;;;;;;9.70;8.68;;;12.40;99.90;;;;;;5059246;28;20021;-50
2022/09/25 09:36:09;;;;;;;10.75;9.43;;;12.40;99.90;;;;;;5039642;28;20040;-52
2022/09/25 09:38:54;;;;;;;12.25;8.82;;;12.40;99.90;;;;;;5054935;28;20024;-51
2022/09/25 09:41:49;;;;;;;11.45;9.43;;;12.40;99.90;;;;;;5055408;28;20063;-50
2022/09/25 09:44:37;;;;;;;10.50;9.02;;;12.40;99.90;;;;;;5051753;28;20009;-56
2022/09/25 09:47:10;;;;;;;9.98;8.95;;;12.50;99.90;;;;;;5059129;28;20051;-50
2022/09/25 09:49:43;;;;;;;11.82;10.32;;;12.50;99.90;;;;;;5061045;28;20021;-50
2022/09/25 09:52:16;;;;;;;12.50;9.73;;;12.60;99.90;;;;;;5057927;28;20039;-50
2022/09/25 09:55:22;;;;;;;12.02;10.25;;;12.60;99.90;;;;;;5060963;28;20016;-52
2022/09/25 09:57:52;;;;;;;9.93;8.80;;;12.50;99.90;;;;;;5052055;28;20084;-50
2022/09/25 10:00:21;;;;;;;12.10;8.68;;;12.60;99.90;;;;;;5053489;28;20302;-52
2022/09/25 10:02:53;;;;;;;11.60;9.57;;;12.60;99.90;;;;;;5064434;28;20024;-50
2022/09/25 10:05:26;;;;;;;13.15;9.30;;;12.60;99.90;;;;;;5052746;28;20025;-50
2022/09/25 10:07:52;;;;;;;13.32;9.75;;;12.60;99.90;;;;;;5057658;28;20332;-49
2022/09/25 10:10:21;;;;;;;14.40;11.57;;;12.60;99.90;;;;;;5062439;28;20029;-50
2022/09/25 10:12:50;;;;;;;11.23;10.02;;;12.60;99.90;;;;;;5039365;28;20402;-49
2022/09/25 10:15:47;;;;;;;12.32;9.50;;;12.60;99.90;;;;;;5063665;28;20067;-49
2022/09/25 10:18:14;;;;;;;12.32;8.57;;;12.60;99.90;;;;;;5060461;28;20013;-52
2022/09/25 10:20:58;;;;;;;11.75;8.60;;;12.70;99.90;;;;;;5061007;28;20482;-51
2022/09/25 10:23:38;;;;;;;15.52;9.32;;;12.70;99.90;;;;;;5049433;28;20429;-49
2022/09/25 10:26:27;;;;;;;10.05;8.88;;;12.60;99.90;;;;;;5058027;28;20025;-49
2022/09/25 10:28:56;;;;;;;16.02;9.48;;;12.70;99.90;;;;;;5059979;28;20187;-50
2022/09/25 10:31:25;;;;;;;15.18;8.80;;;12.70;99.90;;;;;;5034770;28;20371;-49
2022/09/25 10:33:59;;;;;;;16.27;8.82;;;12.60;99.90;;;;;;5060138;28;20024;-49
2022/09/25 10:36:32;;;;;;;11.57;8.13;;;12.70;99.90;;;;;;5043361;28;20082;-49
2022/09/25 10:38:58;;;;;;;10.48;8.20;;;12.70;99.90;;;;;;5059179;28;20564;-50
2022/09/25 10:41:25;;;;;;;9.48;8.38;;;12.70;99.90;;;;;;5056989;28;20021;-50
2022/09/25 10:43:58;;;;;;;9.85;7.90;;;12.70;99.90;;;;;;5059030;28;20028;-48
2022/09/25 10:52:14;;;;;;;10.23;7.35;;;12.90;99.90;;;;;;5061848;28;20063;-50
2022/09/25 10:54:41;;;;;;;10.13;7.90;;;12.90;99.90;;;;;;5064141;28;20033;-53
2022/09/25 10:57:33;;;;;;;10.43;8.52;;;13.00;99.90;;;;;;5062845;28;20099;-50
2022/09/25 11:00:01;;;;;;;13.50;7.90;;;13.00;99.90;;;;;;5062700;28;20116;-52
2022/09/25 11:02:37;;;;;;;8.85;7.57;;;12.90;99.90;;;;;;5058329;28;20089;-51
2022/09/25 11:05:05;;;;;;;13.00;8.23;;;13.00;99.90;;;;;;5062318;28;20024;-54
2022/09/25 11:07:32;;;;;;;10.50;7.68;;;12.90;99.90;;;;;;5060076;28;20510;-53
2022/09/25 11:09:57;;;;;;;9.63;8.07;;;13.00;99.90;;;;;;5066201;28;20536;-53
2022/09/25 11:12:28;;;;;;;9.65;8.02;;;12.90;99.90;;;;;;5041597;28;20029;-54
2022/09/25 11:15:00;;;;;;;14.43;8.77;;;12.90;99.90;;;;;;5048606;28;20024;-52
2022/09/25 11:17:41;;;;;;;11.55;8.75;;;12.90;99.90;;;;;;5060109;28;20013;-54
2022/09/25 11:20:16;;;;;;;9.38;8.13;;;12.90;99.90;;;;;;5067414;28;20074;-54
2022/09/25 11:22:53;;;;;;;11.63;8.80;;;12.90;99.90;;;;;;5059540;28;20029;-52
2022/09/25 11:25:46;;;;;;;15.55;9.38;;;12.80;99.90;;;;;;5048368;28;20032;-51
2022/09/25 11:28:48;;;;;;;10.50;8.07;;;12.80;99.90;;;;;;5062496;28;20367;-51
2022/09/25 11:31:34;;;;;;;10.65;7.95;;;12.80;99.90;;;;;;5013860;28;20113;-50
2022/09/25 11:34:02;;;;;;;11.40;8.93;;;12.80;99.90;;;;;;5043940;28;20020;-52
2022/09/25 11:36:38;;;;;;;10.13;8.38;;;12.80;99.90;;;;;;5058011;28;20025;-50
2022/09/25 11:42:52;;;;;;;9.15;7.88;;;12.80;99.90;;;;;;4994951;28;20040;-53
2022/09/25 11:45:22;;;;;;;;;;;12.80;99.90;;;;;;5051481;28;20048;-53
2022/09/25 11:47:55;;;;;;;8.77;7.03;;;12.80;99.90;;;;;;5062868;28;19999;-51
2022/09/25 11:50:39;;;;;;;9.52;7.40;;;12.80;99.90;;;;;;5057790;28;20387;-53
2022/09/25 11:53:05;;;;;;;11.15;7.43;;;12.90;99.90;;;;;;5046703;28;20467;-50
2022/09/25 11:56:02;;;;;;;10.18;8.23;;;12.90;99.90;;;;;;5041740;28;20112;-53
2022/09/25 11:58:53;;;;;;;6.82;6.15;;;12.90;99.90;;;;;;5029116;28;20482;-50
2022/09/25 12:01:25;;;;;;;8.45;7.65;;;13.00;99.90;;;;;;5047669;28;20033;-50
2022/09/25 12:04:31;;;;;;;11.10;7.25;;;13.00;99.90;;;;;;5048847;28;20025;-51
2022/09/25 12:07:26;;;;;;;7.97;5.80;;;13.00;99.90;;;;;;5042771;28;20091;-52
2022/09/25 12:10:11;;;;;;;8.27;6.68;;;13.00;99.90;;;;;;5047105;28;20379;-52
2022/09/25 12:13:06;;;;;;;7.50;6.80;;;12.90;99.90;;;;;;5058606;28;20483;-49
2022/09/25 12:15:52;;;;;;;9.60;6.82;;;12.90;99.90;;;;;;5054495;28;20132;-51
2022/09/25 12:18:36;;;;;;;;;;;12.90;99.90;;;;;;5048977;28;20048;-49
2022/09/25 12:21:33;;;;;;;9.82;6.18;;;12.90;99.90;;;;;;5061091;28;19999;-49
2022/09/25 12:24:10;;;;;;;8.50;7.05;;;12.80;99.90;;;;;;5060863;28;20033;-50
2022/09/25 12:27:00;;;;;;;8.90;7.38;;;12.90;99.90;;;;;;5062967;28;20344;-56
2022/09/25 12:29:49;;;;;;;7.90;7.13;;;12.80;99.90;;;;;;5056800;28;20021;-49
2022/09/25 12:32:37;;;;;;;9.60;6.95;;;12.90;99.90;;;;;;5051439;28;20113;-50
2022/09/25 12:35:09;;;;;;;8.57;7.43;;;13.00;99.90;;;;;;5058702;28;20530;-49
2022/09/25 12:37:51;;;;;;;8.15;6.35;;;13.00;99.90;;;;;;5063114;28;20029;-50
2022/09/25 12:40:27;;;;;;;8.43;7.00;;;13.10;99.90;;;;;;5048840;28;20099;-51
2022/09/25 12:43:15;;;;;;;11.13;7.63;;;13.10;99.90;;;;;;5058941;28;20031;-50
2022/09/25 12:46:06;;;;;;;6.40;5.40;;;13.10;99.90;;;;;;5065517;28;20259;-49
2022/09/25 12:48:43;;;;;;;7.85;5.20;;;13.10;99.90;;;;;;5055804;28;20380;-49
2022/09/25 12:51:18;;;;;;;5.03;4.35;;;13.10;99.90;;;;;;5043101;28;20125;-56
2022/09/25 12:53:55;;;;;;;5.68;5.07;;;13.10;99.90;;;;;;5059667;28;20385;-49
2022/09/25 12:56:36;;;;;;;5.93;4.38;;;13.10;99.90;;;;;;5048111;28;20097;-52
2022/09/25 12:59:22;;;;;;;6.75;4.72;;;13.20;99.90;;;;;;5041887;28;20024;-51
2022/09/25 13:02:22;;;;;;;7.18;4.65;;;13.30;99.90;;;;;;5060403;28;20436;-49
2022/09/25 13:05:14;;;;;;;7.32;4.50;;;13.40;99.90;;;;;;5059792;28;20484;-49
2022/09/25 13:07:48;;;;;;;6.35;4.03;;;13.40;99.90;;;;;;5035274;28;20060;-49
2022/09/25 13:10:36;;;;;;;4.82;4.38;;;13.50;99.90;;;;;;5051704;28;20029;-55
2022/09/25 13:13:04;;;;;;;6.38;4.00;;;13.50;99.90;;;;;;5059505;28;20112;-51
2022/09/25 13:15:38;;;;;;;4.93;4.10;;;13.50;99.90;;;;;;5044439;28;20032;-50
2022/09/25 13:18:05;;;;;;;4.45;3.38;;;13.50;99.90;;;;;;5060390;28;20029;-49
2022/09/25 13:23:40;;;;;;;3.55;2.83;;;13.50;99.90;;;;;;5078862;22;20073;-51